createdAt,value
2019-02-05T00:01:14.768Z,28.67
2019-02-05T00:03:45.031Z,29.48
2019-02-05T00:06:15.248Z,28.53
2019-02-05T00:08:44.670Z,28.37
2019-02-05T00:11:14.160Z,27.23
2019-02-05T00:13:43.881Z,28.10
2019-02-05T00:16:13.301Z,28.83
2019-02-05T00:18:42.721Z,26.40
2019-02-05T00:21:12.182Z,26.67
2019-02-05T00:23:42.093Z,28.10
2019-02-05T00:26:11.681Z,28.13
2019-02-05T00:28:41.937Z,27.02
2019-02-05T00:31:11.365Z,27.70
2019-02-05T00:33:41.276Z,28.73
2019-02-05T00:36:11.279Z,28.33
2019-02-05T00:38:40.751Z,27.60
2019-02-05T00:41:12.619Z,29.05
2019-02-05T00:43:42.112Z,26.60
2019-02-05T00:46:11.925Z,29.27
2019-02-05T00:48:41.312Z,27.60
2019-02-05T00:51:11.434Z,26.73
2019-02-05T00:53:41.805Z,28.30
2019-02-05T00:56:17.800Z,28.10
2019-02-05T00:58:43.678Z,26.10
2019-02-05T01:01:15.432Z,26.62
2019-02-05T01:03:44.725Z,26.87
2019-02-05T01:06:14.110Z,26.73
2019-02-05T01:08:44.755Z,27.53
2019-02-05T01:11:18.242Z,29.40
2019-02-05T01:13:48.416Z,27.40
2019-02-05T01:16:20.077Z,25.90
2019-02-05T01:18:49.896Z,28.13
2019-02-05T01:21:22.467Z,25.90
2019-02-05T01:23:51.898Z,27.07
2019-02-05T01:26:29.154Z,25.80
2019-02-05T01:28:55.170Z,27.47
2019-02-05T01:31:24.900Z,27.40
2019-02-05T01:34:00.315Z,29.20
2019-02-05T01:36:31.650Z,25.87
2019-02-05T01:39:01.652Z,28.25
2019-02-05T01:41:31.044Z,25.33
2019-02-05T01:44:00.408Z,25.80
2019-02-05T01:46:30.317Z,25.70
2019-02-05T01:49:00.278Z,27.07
2019-02-05T01:51:30.555Z,26.90
2019-02-05T01:54:00.594Z,24.80
2019-02-05T01:56:40.502Z,23.38
2019-02-05T01:59:05.029Z,23.43
2019-02-05T02:01:36.771Z,23.75
2019-02-05T02:04:06.846Z,24.10
2019-02-05T02:06:36.220Z,25.40
2019-02-05T02:09:09.354Z,23.30
2019-02-05T02:11:39.009Z,24.97
2019-02-05T02:14:08.401Z,24.73
2019-02-05T02:16:38.157Z,22.60
2019-02-05T02:19:07.543Z,21.60
2019-02-05T02:21:36.947Z,22.60
2019-02-05T02:24:06.677Z,21.33
2019-02-05T02:26:39.735Z,20.75
2019-02-05T02:29:09.125Z,20.30
2019-02-05T02:31:40.378Z,19.90
2019-02-05T02:34:10.463Z,20.60
2019-02-05T02:36:39.819Z,21.30
2019-02-05T02:39:09.789Z,19.93
2019-02-05T02:41:39.600Z,20.90
2019-02-05T02:44:09.006Z,21.02
2019-02-05T02:46:39.629Z,22.40
2019-02-05T02:49:10.976Z,24.12
2019-02-05T02:51:43.981Z,22.47
2019-02-05T02:54:14.153Z,23.47
2019-02-05T02:56:43.537Z,24.27
2019-02-05T02:59:14.074Z,23.77
2019-02-05T03:01:44.256Z,21.33
2019-02-05T03:04:15.529Z,24.70
2019-02-05T03:06:45.128Z,23.10
2019-02-05T03:09:15.784Z,23.80
2019-02-05T03:11:45.402Z,24.33
2019-02-05T03:14:15.331Z,25.62
2019-02-05T03:16:45.051Z,24.87
2019-02-05T03:19:15.357Z,23.17
2019-02-05T03:21:45.261Z,23.93
2019-02-05T03:24:16.666Z,28.60
2019-02-05T03:26:46.318Z,30.17
2019-02-05T03:29:17.654Z,28.20
2019-02-05T03:31:55.315Z,30.43
2019-02-05T03:34:27.724Z,30.07
2019-02-05T03:36:58.635Z,29.40
2019-02-05T03:39:28.024Z,29.80
2019-02-05T03:41:57.457Z,30.07
2019-02-05T03:44:26.836Z,29.73
2019-02-05T03:46:57.797Z,30.07
2019-02-05T03:49:29.505Z,27.87
2019-02-05T03:52:19.430Z,29.33
2019-02-05T03:55:19.279Z,31.10
2019-02-05T03:58:16.395Z,29.40
2019-02-05T04:01:18.864Z,28.90
2019-02-05T04:04:49.000Z,29.10
2019-02-05T04:08:25.947Z,31.40
2019-02-05T04:11:30.420Z,27.77
2019-02-05T04:14:39.882Z,30.37
2019-02-05T04:17:55.329Z,30.43
2019-02-05T04:21:01.684Z,28.90
2019-02-05T04:24:20.617Z,30.37
2019-02-05T04:27:24.508Z,31.77
2019-02-05T04:30:17.980Z,29.57
2019-02-05T04:33:26.527Z,30.60
2019-02-05T04:36:38.389Z,31.25
2019-02-05T04:39:50.124Z,29.83
2019-02-05T04:42:39.108Z,29.60
2019-02-05T04:45:46.216Z,30.90
2019-02-05T04:49:02.840Z,31.15
2019-02-05T04:52:13.121Z,32.27
2019-02-05T04:54:59.864Z,30.00
2019-02-05T04:58:10.373Z,31.60
2019-02-05T05:01:42.667Z,31.07
2019-02-05T05:04:27.898Z,32.20
2019-02-05T05:07:25.754Z,33.60
2019-02-05T05:10:08.613Z,34.60
2019-02-05T05:12:38.414Z,33.17
2019-02-05T05:15:11.205Z,32.93
2019-02-05T05:17:45.488Z,33.00
2019-02-05T05:20:19.435Z,33.35
2019-02-05T05:22:50.434Z,36.47
2019-02-05T05:25:22.479Z,33.45
2019-02-05T05:28:09.433Z,32.93
2019-02-05T05:30:30.123Z,30.40
2019-02-05T05:33:00.108Z,31.77
2019-02-05T05:35:41.726Z,32.00
2019-02-05T05:38:01.201Z,30.83
2019-02-05T05:40:30.609Z,31.80
2019-02-05T05:43:00.110Z,34.75
2019-02-05T05:45:30.846Z,35.17
2019-02-05T05:48:00.239Z,34.53
2019-02-05T05:50:30.157Z,35.30
2019-02-05T05:53:01.692Z,34.33
2019-02-05T05:55:33.356Z,27.40
2019-02-05T05:58:04.286Z,27.73
2019-02-05T06:00:36.785Z,23.47
2019-02-05T06:03:07.119Z,22.82
2019-02-05T06:05:37.373Z,23.20
2019-02-05T06:08:07.110Z,23.63
2019-02-05T06:10:36.487Z,21.20
2019-02-05T06:13:06.800Z,23.10
2019-02-05T06:15:36.643Z,22.48
2019-02-05T06:18:06.022Z,23.18
2019-02-05T06:20:36.673Z,22.42
2019-02-05T06:23:07.433Z,22.15
2019-02-05T06:25:36.858Z,23.97
2019-02-05T06:28:06.825Z,22.30
2019-02-05T06:30:36.244Z,24.98
2019-02-05T06:33:06.004Z,22.57
2019-02-05T06:35:36.318Z,24.43
2019-02-05T06:38:07.341Z,22.07
2019-02-05T06:40:37.530Z,22.30
2019-02-05T06:43:07.627Z,21.80
2019-02-05T06:45:41.482Z,22.50
2019-02-05T06:48:12.031Z,23.93
2019-02-05T06:50:41.349Z,22.40
2019-02-05T06:53:11.961Z,23.60
2019-02-05T06:55:43.079Z,24.77
2019-02-05T06:58:12.466Z,25.83
2019-02-05T07:00:43.082Z,29.30
2019-02-05T07:03:17.053Z,27.13
2019-02-05T07:05:48.287Z,24.83
2019-02-05T07:08:24.337Z,23.80
2019-02-05T07:10:59.443Z,23.43
2019-02-05T07:13:29.036Z,24.43
2019-02-05T07:15:59.703Z,25.07
2019-02-05T07:18:30.022Z,23.92
2019-02-05T07:20:59.428Z,25.23
2019-02-05T07:23:31.243Z,25.07
2019-02-05T07:26:02.022Z,23.60
2019-02-05T07:28:32.464Z,23.80
2019-02-05T07:31:02.585Z,23.77
2019-02-05T07:33:34.541Z,28.00
2019-02-05T07:36:06.667Z,24.57
2019-02-05T07:38:38.757Z,24.70
2019-02-05T07:41:08.225Z,26.00
2019-02-05T07:43:39.036Z,24.27
2019-02-05T07:46:09.314Z,25.43
2019-02-05T07:48:38.693Z,24.10
2019-02-05T07:51:08.082Z,26.47
2019-02-05T07:53:39.238Z,24.20
2019-02-05T07:56:08.649Z,26.57
2019-02-05T07:58:38.029Z,26.25
2019-02-05T08:01:07.456Z,24.13
2019-02-05T08:03:36.945Z,25.30
2019-02-05T08:06:08.952Z,25.60
2019-02-05T08:08:38.971Z,24.90
2019-02-05T08:11:08.800Z,23.93
2019-02-05T08:13:38.692Z,22.03
2019-02-05T08:16:08.185Z,23.75
2019-02-05T08:18:40.342Z,22.77
2019-02-05T08:21:10.513Z,22.90
2019-02-05T08:23:40.460Z,21.70
2019-02-05T08:26:13.309Z,22.10
2019-02-05T08:28:43.027Z,20.57
2019-02-05T08:31:12.399Z,22.80
2019-02-05T08:33:42.516Z,23.93
2019-02-05T08:36:12.840Z,23.43
2019-02-05T08:38:42.552Z,23.43
2019-02-05T08:41:11.986Z,25.93
2019-02-05T08:43:43.194Z,24.63
2019-02-05T08:46:13.098Z,23.67
2019-02-05T08:48:42.595Z,22.63
2019-02-05T08:51:12.549Z,23.70
2019-02-05T08:53:42.768Z,27.43
2019-02-05T08:56:12.152Z,37.48
2019-02-05T08:58:41.545Z,38.70
2019-02-05T09:01:14.374Z,32.00
2019-02-05T09:03:43.132Z,30.77
2019-02-05T09:06:12.522Z,28.73
2019-02-05T09:08:42.723Z,24.00
2019-02-05T09:11:12.716Z,22.30
2019-02-05T09:13:42.419Z,22.87
2019-02-05T09:16:12.309Z,23.07
2019-02-05T09:18:41.707Z,21.67
2019-02-05T09:21:11.395Z,24.27
2019-02-05T09:23:42.675Z,22.83
2019-02-05T09:26:13.305Z,22.60
2019-02-05T09:28:42.981Z,24.00
2019-02-05T09:31:12.518Z,22.27
2019-02-05T09:33:42.586Z,23.60
2019-02-05T09:36:14.950Z,26.50
2019-02-05T09:38:47.676Z,23.33
2019-02-05T09:41:18.018Z,25.17
2019-02-05T09:43:47.529Z,24.90
2019-02-05T09:46:18.064Z,24.35
2019-02-05T09:48:49.888Z,24.70
2019-02-05T09:51:19.275Z,27.00
2019-02-05T09:53:49.084Z,24.00
2019-02-05T09:56:18.472Z,24.80
2019-02-05T09:58:48.007Z,26.07
2019-02-05T10:01:20.717Z,25.97
2019-02-05T10:03:50.845Z,26.60
2019-02-05T10:06:20.254Z,27.35
2019-02-05T10:08:50.120Z,26.33
2019-02-05T10:11:21.396Z,25.37
2019-02-05T10:13:50.767Z,25.47
2019-02-05T10:16:22.163Z,26.57
2019-02-05T10:18:53.560Z,26.10
2019-02-05T10:21:28.575Z,25.48
2019-02-05T10:23:59.146Z,25.20
2019-02-05T10:26:29.710Z,27.10
2019-02-05T10:28:59.049Z,27.75
2019-02-05T10:31:29.450Z,25.50
2019-02-05T10:33:59.119Z,25.67
2019-02-05T10:36:29.591Z,25.07
2019-02-05T10:38:59.521Z,26.77
2019-02-05T10:41:28.917Z,24.52
2019-02-05T10:43:58.301Z,25.80
2019-02-05T10:46:27.709Z,27.75
2019-02-05T10:49:03.160Z,25.50
2019-02-05T10:51:31.129Z,26.27
2019-02-05T10:54:01.579Z,25.03
2019-02-05T10:56:32.034Z,25.25
2019-02-05T10:59:02.189Z,25.63
2019-02-05T11:01:33.152Z,27.37
2019-02-05T11:04:03.764Z,28.00
2019-02-05T11:06:34.243Z,28.87
2019-02-05T11:09:05.973Z,29.27
2019-02-05T11:11:37.961Z,29.32
2019-02-05T11:14:12.575Z,28.80
2019-02-05T11:16:42.289Z,32.42
2019-02-05T11:19:18.905Z,27.80
2019-02-05T11:21:49.682Z,29.97
2019-02-05T11:24:19.460Z,29.25
2019-02-05T11:26:48.859Z,29.63
2019-02-05T11:29:18.564Z,27.73
2019-02-05T11:31:48.052Z,26.57
2019-02-05T11:34:19.089Z,27.58
2019-02-05T11:36:50.317Z,27.60
2019-02-05T11:39:21.221Z,28.07
2019-02-05T11:41:52.088Z,29.27
2019-02-05T11:44:25.684Z,29.52
2019-02-05T11:46:55.453Z,31.20
2019-02-05T11:49:25.654Z,27.50
2019-02-05T11:51:58.518Z,29.00
2019-02-05T11:54:30.882Z,27.80
2019-02-05T11:57:00.973Z,30.80
2019-02-05T11:59:31.281Z,28.87
2019-02-05T12:02:00.711Z,28.47
2019-02-05T12:04:30.510Z,28.13
2019-02-05T12:06:59.895Z,29.90
2019-02-05T12:09:30.673Z,32.50
2019-02-05T12:12:01.868Z,31.05
2019-02-05T12:14:35.835Z,28.67
2019-02-05T12:17:05.762Z,28.93
2019-02-05T12:19:35.349Z,28.00
2019-02-05T12:22:05.286Z,30.03
2019-02-05T12:24:39.056Z,29.50
2019-02-05T12:27:09.945Z,28.33
2019-02-05T12:29:39.699Z,27.30
2019-02-05T12:32:09.141Z,29.73
2019-02-05T12:34:40.419Z,28.90
2019-02-05T12:37:12.453Z,29.30
2019-02-05T12:39:45.424Z,30.77
2019-02-05T12:42:15.248Z,31.75
2019-02-05T12:44:44.641Z,30.30
2019-02-05T12:47:15.818Z,28.73
2019-02-05T12:49:46.382Z,31.00
2019-02-05T12:52:17.366Z,28.65
2019-02-05T12:54:53.808Z,29.67
2019-02-05T12:57:23.342Z,30.70
2019-02-05T12:59:52.846Z,31.80
2019-02-05T13:02:22.294Z,31.75
2019-02-05T13:04:51.667Z,31.23
2019-02-05T13:07:21.563Z,29.72
2019-02-05T13:09:51.759Z,30.12
2019-02-05T13:12:21.215Z,30.52
2019-02-05T13:14:50.638Z,30.37
2019-02-05T13:17:20.541Z,29.45
2019-02-05T13:19:50.931Z,30.37
2019-02-05T13:22:20.994Z,30.97
2019-02-05T13:24:50.877Z,29.83
2019-02-05T13:27:20.755Z,29.48
2019-02-05T13:29:51.505Z,29.80
2019-02-05T13:32:25.095Z,28.40
2019-02-05T13:34:54.521Z,29.97
2019-02-05T13:37:24.786Z,30.17
2019-02-05T13:39:54.916Z,31.50
2019-02-05T13:42:26.023Z,30.57
2019-02-05T13:44:57.409Z,31.50
2019-02-05T13:47:28.020Z,29.57
2019-02-05T13:49:57.626Z,29.50
2019-02-05T13:52:28.106Z,33.48
2019-02-05T13:54:59.812Z,31.90
2019-02-05T13:57:29.935Z,33.47
2019-02-05T13:59:59.770Z,31.30
2019-02-05T14:02:29.585Z,32.30
2019-02-05T14:04:59.185Z,32.90
2019-02-05T14:07:28.591Z,31.20
2019-02-05T14:09:59.760Z,33.33
2019-02-05T14:12:30.639Z,34.20
2019-02-05T14:15:04.253Z,32.87
2019-02-05T14:17:34.704Z,31.80
2019-02-05T14:20:05.319Z,31.77
2019-02-05T14:22:34.865Z,31.73
2019-02-05T14:25:06.698Z,32.30
2019-02-05T14:27:36.960Z,32.30
2019-02-05T14:30:10.664Z,33.23
2019-02-05T14:32:40.578Z,31.95
2019-02-05T14:35:11.092Z,32.10
2019-02-05T14:37:45.548Z,31.93
2019-02-05T14:40:21.628Z,29.80
2019-02-05T14:42:51.021Z,32.30
2019-02-05T14:45:23.873Z,31.87
2019-02-05T14:47:53.581Z,32.67
2019-02-05T14:50:28.441Z,31.87
2019-02-05T14:53:04.586Z,30.47
2019-02-05T14:55:36.317Z,30.95
2019-02-05T14:58:11.381Z,32.03
2019-02-05T15:00:46.038Z,33.60
2019-02-05T15:03:17.088Z,32.40
2019-02-05T15:05:47.576Z,34.40
2019-02-05T15:08:19.128Z,33.38
2019-02-05T15:10:48.573Z,35.30
2019-02-05T15:13:18.839Z,32.80
2019-02-05T15:15:50.133Z,35.60
2019-02-05T15:18:24.739Z,33.30
2019-02-05T15:20:55.849Z,34.73
2019-02-05T15:23:30.013Z,34.30
2019-02-05T15:26:00.800Z,33.77
2019-02-05T15:28:32.444Z,34.17
2019-02-05T15:31:03.794Z,34.20
2019-02-05T15:34:05.369Z,35.97
2019-02-05T15:36:37.186Z,34.50
2019-02-05T15:39:13.836Z,34.67
2019-02-05T15:41:45.493Z,34.90
2019-02-05T15:44:16.255Z,36.60
2019-02-05T15:46:46.333Z,34.40
2019-02-05T15:49:16.552Z,33.33
2019-02-05T15:51:46.092Z,34.98
2019-02-05T15:54:23.390Z,37.20
2019-02-05T15:56:54.469Z,34.73
2019-02-05T15:59:25.809Z,37.50
2019-02-05T16:02:06.083Z,35.20
2019-02-05T16:04:27.918Z,37.58
2019-02-05T16:06:59.128Z,37.17
2019-02-05T16:09:30.616Z,37.90
2019-02-05T16:12:02.929Z,39.55
2019-02-05T16:14:38.266Z,37.17
2019-02-05T16:17:07.633Z,40.67
2019-02-05T16:19:42.088Z,37.73
2019-02-05T16:22:12.006Z,42.27
2019-02-05T16:24:42.475Z,40.33
2019-02-05T16:27:13.803Z,38.77
2019-02-05T16:29:49.730Z,40.38
2019-02-05T16:32:19.901Z,39.33
2019-02-05T16:34:50.298Z,41.20
2019-02-05T16:37:22.415Z,44.03
2019-02-05T16:39:57.937Z,41.80
2019-02-05T16:42:28.440Z,42.50
2019-02-05T16:44:59.930Z,41.13
2019-02-05T16:47:32.321Z,41.40
2019-02-05T16:50:03.322Z,38.93
2019-02-05T16:52:33.189Z,41.23
2019-02-05T16:55:04.719Z,39.60
2019-02-05T16:57:34.203Z,40.50
2019-02-05T17:00:05.568Z,42.10
2019-02-05T17:02:39.151Z,42.33
2019-02-05T17:05:10.716Z,44.03
2019-02-05T17:07:40.094Z,44.35
2019-02-05T17:10:11.556Z,42.20
2019-02-05T17:12:45.894Z,46.27
2019-02-05T17:15:18.928Z,44.23
2019-02-05T17:17:50.829Z,44.57
2019-02-05T17:20:27.243Z,40.60
2019-02-05T17:22:56.548Z,45.43
2019-02-05T17:25:26.869Z,41.50
2019-02-05T17:27:57.609Z,40.93
2019-02-05T17:30:30.115Z,45.38
2019-02-05T17:33:01.405Z,46.13
2019-02-05T17:35:35.434Z,46.35
2019-02-05T17:38:06.576Z,44.40
2019-02-05T17:40:36.189Z,46.65
2019-02-05T17:43:06.163Z,53.30
2019-02-05T17:45:37.409Z,47.40
2019-02-05T17:48:09.836Z,43.07
2019-02-05T17:50:39.702Z,47.10
2019-02-05T17:53:10.893Z,50.50
2019-02-05T17:55:40.579Z,46.67
2019-02-05T17:58:10.537Z,46.87
2019-02-05T18:00:47.990Z,49.53
2019-02-05T18:03:18.210Z,50.15
2019-02-05T18:05:49.689Z,42.30
2019-02-05T18:08:19.114Z,52.48
2019-02-05T18:10:48.505Z,42.57
2019-02-05T18:13:18.247Z,43.98
2019-02-05T18:15:47.699Z,50.40
2019-02-05T18:18:18.296Z,39.27
2019-02-05T18:21:09.282Z,42.23
2019-02-05T18:31:50.281Z,50.17
2019-02-05T18:34:48.714Z,39.90
2019-02-05T18:38:08.071Z,41.87
2019-02-05T19:23:41.384Z,36.40
2019-02-05T19:40:33.664Z,42.55
2019-02-05T19:43:03.310Z,45.38
2019-02-05T19:46:00.704Z,34.00
2019-02-05T19:48:36.000Z,42.88
2019-02-05T19:51:05.792Z,39.10
2019-02-05T19:53:35.802Z,40.90
2019-02-05T19:56:06.068Z,49.20
2019-02-05T19:58:35.976Z,41.97
2019-02-05T20:01:06.973Z,49.30
2019-02-05T20:03:38.765Z,40.17
2019-02-05T20:06:07.747Z,43.13
2019-02-05T20:08:37.913Z,44.65
2019-02-05T20:11:07.477Z,41.07
2019-02-05T20:13:40.301Z,40.53
2019-02-05T20:16:09.472Z,39.60
2019-02-05T20:18:38.892Z,39.87
2019-02-05T20:21:08.283Z,34.53
2019-02-05T20:23:37.797Z,35.30
2019-02-05T20:26:07.609Z,38.10
2019-02-05T20:28:37.421Z,37.10
2019-02-05T20:31:07.048Z,37.90
2019-02-05T20:33:36.397Z,34.77
2019-02-05T20:36:05.907Z,38.17
2019-02-05T20:38:36.022Z,37.70
2019-02-05T20:41:07.446Z,38.97
2019-02-05T20:43:39.499Z,36.70
2019-02-05T20:46:09.222Z,43.43
2019-02-05T20:48:38.705Z,38.20
2019-02-05T20:51:09.181Z,35.50
2019-02-05T20:53:38.919Z,37.00
2019-02-05T20:56:08.668Z,44.40
2019-02-05T20:58:38.201Z,44.93
2019-02-05T21:01:13.873Z,39.57
2019-02-05T21:03:43.718Z,36.40
2019-02-05T21:06:13.664Z,29.93
2019-02-05T21:08:43.553Z,32.50
2019-02-05T21:11:12.885Z,40.70
2019-02-05T21:13:42.397Z,44.03
2019-02-05T21:16:11.933Z,40.30
2019-02-05T21:18:42.708Z,37.40
2019-02-05T21:21:12.783Z,37.97
2019-02-05T21:23:42.288Z,34.77
2019-02-05T21:26:12.385Z,37.80
2019-02-05T21:28:44.064Z,39.33
2019-02-05T21:31:14.558Z,39.80
2019-02-05T21:33:44.713Z,37.20
2019-02-05T21:36:14.914Z,37.57
2019-02-05T21:38:45.576Z,35.80
2019-02-05T21:41:19.116Z,33.58
2019-02-05T21:43:48.821Z,32.33
2019-02-05T21:46:22.780Z,31.93
2019-02-05T21:48:53.330Z,32.93
2019-02-05T21:51:22.808Z,31.27
2019-02-05T21:53:54.452Z,33.57
2019-02-05T21:56:23.937Z,32.23
2019-02-05T21:58:53.996Z,34.37
2019-02-05T22:01:25.209Z,28.87
2019-02-05T22:03:54.666Z,31.17
2019-02-05T22:06:24.049Z,31.57
2019-02-05T22:08:54.901Z,32.93
2019-02-05T22:11:27.636Z,30.97
2019-02-05T22:13:57.531Z,33.98
2019-02-05T22:16:28.218Z,30.47
2019-02-05T22:18:59.028Z,39.97
2019-02-05T22:21:29.473Z,36.70
2019-02-05T22:24:05.236Z,35.80
2019-02-05T22:26:36.333Z,41.60
2019-02-05T22:29:09.737Z,43.83
2019-02-05T22:31:39.821Z,34.78
2019-02-05T22:34:09.837Z,44.37
2019-02-05T22:36:40.517Z,37.43
2019-02-05T22:39:11.082Z,36.40
2019-02-05T22:41:44.274Z,41.90
2019-02-05T22:44:14.239Z,38.87
2019-02-05T22:46:44.518Z,41.55
2019-02-05T22:49:16.962Z,41.17
2019-02-05T22:51:46.644Z,42.67
2019-02-05T22:54:16.220Z,39.78
2019-02-05T22:56:46.080Z,42.75
2019-02-05T22:59:17.596Z,41.30
2019-02-05T23:01:56.695Z,37.40
2019-02-05T23:04:53.213Z,37.57
2019-02-05T23:07:25.307Z,34.78
2019-02-05T23:10:27.482Z,37.70
2019-02-05T23:13:18.234Z,37.63
2019-02-05T23:15:51.566Z,40.60
2019-02-05T23:18:27.304Z,36.98
2019-02-05T23:20:57.943Z,34.40
2019-02-05T23:23:27.909Z,31.77
2019-02-05T23:25:57.654Z,34.90
2019-02-05T23:28:31.346Z,32.33
2019-02-05T23:31:00.761Z,35.47
2019-02-05T23:33:30.435Z,33.07
2019-02-05T23:36:00.920Z,34.60
2019-02-05T23:38:30.309Z,34.87
2019-02-05T23:41:00.332Z,32.10
2019-02-05T23:43:30.172Z,35.10
2019-02-05T23:46:01.678Z,35.30
2019-02-05T23:48:34.421Z,35.10
2019-02-05T23:51:05.964Z,35.40
2019-02-05T23:53:39.322Z,36.17
2019-02-05T23:56:09.638Z,34.10
2019-02-05T23:58:39.122Z,35.03
